createdAt,value
2018-02-07T00:00:15.454Z,90.33
2018-02-07T00:02:45.510Z,88.50
2018-02-07T00:05:15.053Z,85.66
2018-02-07T00:07:44.368Z,84.63
2018-02-07T00:10:14.297Z,82.57
2018-02-07T00:12:43.745Z,81.57
2018-02-07T00:15:13.301Z,81.02
2018-02-07T00:17:43.050Z,80.49
2018-02-07T00:20:12.786Z,80.89
2018-02-07T00:22:42.406Z,80.93
2018-02-07T00:25:12.566Z,80.58
2018-02-07T00:27:42.198Z,80.92
2018-02-07T00:30:11.570Z,80.58
2018-02-07T00:32:41.158Z,80.56
2018-02-07T00:35:10.942Z,80.47
2018-02-07T00:37:40.561Z,80.24
2018-02-07T00:40:10.158Z,80.18
2018-02-07T00:42:39.520Z,80.41
2018-02-07T00:45:09.190Z,79.48
2018-02-07T00:47:38.792Z,84.37
2018-02-07T00:50:08.308Z,82.11
2018-02-07T00:52:37.643Z,80.61
2018-02-07T00:55:07.502Z,80.93
2018-02-07T00:57:36.795Z,80.32
2018-02-07T01:00:06.279Z,80.56
2018-02-07T01:02:35.910Z,80.56
2018-02-07T01:05:05.272Z,79.73
2018-02-07T01:07:34.571Z,79.62
2018-02-07T01:10:04.634Z,80.53
2018-02-07T01:12:34.391Z,81.22
2018-02-07T01:15:04.048Z,80.39
2018-02-07T01:17:33.674Z,80.88
2018-02-07T01:20:03.665Z,80.87
2018-02-07T01:22:34.232Z,80.44
2018-02-07T01:25:03.836Z,80.91
2018-02-07T01:27:33.592Z,80.72
2018-02-07T01:30:02.953Z,80.61
2018-02-07T01:32:32.686Z,80.96
2018-02-07T01:35:02.461Z,81.62
2018-02-07T01:37:32.001Z,80.93
2018-02-07T01:40:01.692Z,80.51
2018-02-07T01:42:30.967Z,80.11
2018-02-07T01:45:00.629Z,79.92
2018-02-07T01:47:30.294Z,79.87
2018-02-07T01:49:59.828Z,79.62
2018-02-07T01:52:29.386Z,79.56
2018-02-07T01:54:58.821Z,79.69
2018-02-07T01:57:28.442Z,79.41
2018-02-07T01:59:57.855Z,78.72
2018-02-07T02:02:27.205Z,80.06
2018-02-07T02:04:57.155Z,79.66
2018-02-07T02:07:26.878Z,79.39
2018-02-07T02:09:56.522Z,79.27
2018-02-07T02:12:27.901Z,80.34
2018-02-07T02:14:57.461Z,80.53
2018-02-07T02:17:27.245Z,80.40
2018-02-07T02:19:56.942Z,79.99
2018-02-07T02:22:26.499Z,80.23
2018-02-07T02:24:56.175Z,80.40
2018-02-07T02:27:25.790Z,80.06
2018-02-07T02:29:55.410Z,79.59
2018-02-07T02:32:25.300Z,79.91
2018-02-07T02:34:55.114Z,80.94
2018-02-07T02:37:24.702Z,80.81
2018-02-07T02:39:54.206Z,81.86
2018-02-07T02:42:24.171Z,81.44
2018-02-07T02:44:53.774Z,80.45
2018-02-07T02:47:23.243Z,80.97
2018-02-07T02:49:52.674Z,81.22
2018-02-07T02:52:22.147Z,82.37
2018-02-07T02:54:52.070Z,82.41
2018-02-07T02:57:22.018Z,82.28
2018-02-07T02:59:51.613Z,82.00
2018-02-07T03:02:20.974Z,81.45
2018-02-07T03:04:51.388Z,81.40
2018-02-07T03:07:20.846Z,81.12
2018-02-07T03:09:50.421Z,81.12
2018-02-07T03:12:19.677Z,81.23
2018-02-07T03:14:49.214Z,80.39
2018-02-07T03:17:18.886Z,81.55
2018-02-07T03:19:48.542Z,81.33
2018-02-07T03:22:18.398Z,80.63
2018-02-07T03:24:48.222Z,80.56
2018-02-07T03:27:17.674Z,81.65
2018-02-07T03:29:47.253Z,80.83
2018-02-07T03:32:17.382Z,80.32
2018-02-07T03:34:47.509Z,80.54
2018-02-07T03:37:17.199Z,80.82
2018-02-07T03:39:46.789Z,81.48
2018-02-07T03:42:16.323Z,81.40
2018-02-07T03:44:46.098Z,80.44
2018-02-07T03:47:15.830Z,80.54
2018-02-07T03:49:45.561Z,81.00
2018-02-07T03:52:15.772Z,80.57
2018-02-07T03:54:45.969Z,80.33
2018-02-07T03:57:15.951Z,80.57
2018-02-07T03:59:45.992Z,81.48
2018-02-07T04:02:15.864Z,81.17
2018-02-07T04:04:45.734Z,81.06
2018-02-07T04:07:16.023Z,80.80
2018-02-07T04:09:46.074Z,81.22
2018-02-07T04:12:27.150Z,80.75
2018-02-07T04:14:57.265Z,81.24
2018-02-07T04:17:27.098Z,80.74
2018-02-07T04:19:57.114Z,80.67
2018-02-07T04:22:27.133Z,80.49
2018-02-07T04:24:57.104Z,80.42
2018-02-07T04:27:27.144Z,80.11
2018-02-07T04:30:03.333Z,80.32
2018-02-07T04:32:33.099Z,80.28
2018-02-07T04:35:03.043Z,79.95
2018-02-07T04:37:32.826Z,80.60
2018-02-07T04:40:02.433Z,80.54
2018-02-07T04:42:32.757Z,79.96
2018-02-07T04:45:02.659Z,79.80
2018-02-07T04:47:32.339Z,79.80
2018-02-07T04:50:02.301Z,80.08
2018-02-07T04:52:32.888Z,81.34
2018-02-07T04:55:03.034Z,81.27
2018-02-07T05:00:12.646Z,82.69
2018-02-07T05:02:42.870Z,84.64
2018-02-07T05:05:13.041Z,83.82
2018-02-07T05:07:42.926Z,82.58
2018-02-07T05:10:13.169Z,81.56
2018-02-07T05:12:42.755Z,81.10
2018-02-07T05:15:12.518Z,80.42
2018-02-07T05:17:42.371Z,80.68
2018-02-07T05:20:12.432Z,80.71
2018-02-07T05:22:42.435Z,80.76
2018-02-07T05:25:12.618Z,79.95
2018-02-07T05:27:42.550Z,80.66
2018-02-07T05:30:12.314Z,80.38
2018-02-07T05:32:42.300Z,81.42
2018-02-07T05:35:12.246Z,85.41
2018-02-07T05:37:42.011Z,87.75
2018-02-07T05:40:11.918Z,90.12
2018-02-07T05:42:42.002Z,90.45
2018-02-07T05:45:12.052Z,89.32
2018-02-07T05:47:42.208Z,86.39
2018-02-07T05:50:11.805Z,88.85
2018-02-07T05:52:41.454Z,84.22
2018-02-07T05:55:11.650Z,82.42
2018-02-07T05:57:41.923Z,81.92
2018-02-07T06:00:12.118Z,82.54
2018-02-07T06:02:42.129Z,82.33
2018-02-07T06:05:11.960Z,81.63
2018-02-07T06:07:41.891Z,80.93
2018-02-07T06:10:11.488Z,80.91
2018-02-07T06:13:03.945Z,80.16
2018-02-07T06:15:33.833Z,80.00
2018-02-07T06:18:03.734Z,80.89
2018-02-07T06:20:33.494Z,81.04
2018-02-07T06:23:03.338Z,81.36
2018-02-07T06:25:43.838Z,81.59
2018-02-07T06:28:14.016Z,81.26
2018-02-07T06:30:43.629Z,80.64
2018-02-07T06:33:13.462Z,80.61
2018-02-07T06:35:43.250Z,80.68
2018-02-07T06:38:13.097Z,80.35
2018-02-07T06:40:42.917Z,79.96
2018-02-07T06:43:12.937Z,80.09
2018-02-07T06:45:43.414Z,80.29
2018-02-07T06:48:13.406Z,79.98
2018-02-07T06:50:43.814Z,81.05
2018-02-07T06:53:13.825Z,80.33
2018-02-07T06:55:43.854Z,80.87
2018-02-07T06:58:14.183Z,80.26
2018-02-07T07:00:43.798Z,80.21
2018-02-07T07:03:13.380Z,81.09
2018-02-07T07:05:43.318Z,81.04
2018-02-07T07:08:12.901Z,81.84
2018-02-07T07:10:42.522Z,81.58
2018-02-07T07:13:12.418Z,80.82
2018-02-07T07:15:41.981Z,80.97
2018-02-07T07:18:11.949Z,80.46
2018-02-07T07:20:41.838Z,80.59
2018-02-07T07:23:11.465Z,81.41
2018-02-07T07:25:41.125Z,80.59
2018-02-07T07:28:11.010Z,81.58
2018-02-07T07:30:40.651Z,81.51
2018-02-07T07:33:10.265Z,82.10
2018-02-07T07:35:39.862Z,81.27
2018-02-07T07:38:09.759Z,81.03
2018-02-07T07:40:39.612Z,80.43
2018-02-07T07:43:08.991Z,80.70
2018-02-07T07:45:38.341Z,80.76
2018-02-07T15:20:36.229Z,77.82
2018-02-07T15:23:07.069Z,76.69
2018-02-07T15:25:37.960Z,77.64
2018-02-07T15:28:09.584Z,77.38
2018-02-07T15:30:40.416Z,77.65
2018-02-07T15:33:11.248Z,77.89
2018-02-07T15:35:42.309Z,80.15
2018-02-07T15:38:13.124Z,79.30
2018-02-07T15:40:44.151Z,78.72
2018-02-07T15:43:15.440Z,78.12
2018-02-07T15:45:46.240Z,78.25
2018-02-07T15:48:17.436Z,79.25
2018-02-07T15:50:48.317Z,78.89
2018-02-07T15:53:19.179Z,78.29
2018-02-07T15:55:50.212Z,77.23
2018-02-07T15:58:21.024Z,76.37
2018-02-07T16:00:51.804Z,77.08
2018-02-07T16:03:22.872Z,77.01
2018-02-07T16:05:54.064Z,78.91
2018-02-07T16:08:25.945Z,79.73
2018-02-07T16:10:57.083Z,79.92
2018-02-07T16:13:27.926Z,78.92
2018-02-07T16:15:59.148Z,79.09
2018-02-07T16:18:30.016Z,78.80
2018-02-07T16:21:00.961Z,80.52
2018-02-07T16:23:32.112Z,80.87
2018-02-07T16:26:03.033Z,80.27
2018-02-07T16:28:33.821Z,79.72
2018-02-07T16:31:05.970Z,80.23
2018-02-07T16:33:36.766Z,79.73
2018-02-07T16:36:07.571Z,82.01
2018-02-07T16:38:39.565Z,81.65
2018-02-07T16:41:10.622Z,80.22
2018-02-07T16:43:42.635Z,81.27
2018-02-07T16:46:13.472Z,80.79
2018-02-07T16:48:44.342Z,79.31
2018-02-07T16:51:15.613Z,78.05
2018-02-07T16:53:46.420Z,77.63
2018-02-07T16:56:17.300Z,77.35
2018-02-07T16:58:48.217Z,77.50
2018-02-07T17:01:19.090Z,77.64
2018-02-07T17:03:50.013Z,77.61
2018-02-07T17:06:21.572Z,77.64
2018-02-07T17:08:52.469Z,77.96
2018-02-07T17:11:23.241Z,78.01
2018-02-07T17:13:54.041Z,79.48
2018-02-07T17:16:25.024Z,78.76
2018-02-07T17:18:55.876Z,80.31
2018-02-07T17:21:26.801Z,82.63
2018-02-07T17:23:58.588Z,81.48
2018-02-07T17:26:29.445Z,80.17
2018-02-07T17:29:00.208Z,80.84
2018-02-07T17:31:31.296Z,81.96
2018-02-07T17:34:02.180Z,80.71
2018-02-07T17:36:32.964Z,80.05
2018-02-07T17:39:04.311Z,79.89
2018-02-07T17:41:35.754Z,80.24
2018-02-07T17:44:07.364Z,81.12
2018-02-07T17:46:38.572Z,82.55
2018-02-07T17:49:09.581Z,80.63
2018-02-07T17:51:40.410Z,80.22
2018-02-07T17:54:12.084Z,78.50
2018-02-07T17:56:43.179Z,79.38
2018-02-07T17:59:13.973Z,79.38
2018-02-07T18:01:44.823Z,79.12
2018-02-07T18:04:17.662Z,80.31
2018-02-07T18:06:48.529Z,81.09
2018-02-07T18:09:19.717Z,80.25
2018-02-07T18:11:50.631Z,79.83
2018-02-07T18:14:21.513Z,79.45
2018-02-07T18:16:52.577Z,78.65
2018-02-07T18:19:23.426Z,78.04
2018-02-07T18:21:56.973Z,77.55
2018-02-07T18:24:28.277Z,79.32
2018-02-07T18:26:59.130Z,78.97
2018-02-07T18:29:30.041Z,78.62
2018-02-07T18:32:01.307Z,78.88
2018-02-07T18:34:32.100Z,78.78
2018-02-07T18:37:03.323Z,79.30
2018-02-07T18:39:34.181Z,79.75
2018-02-07T18:42:05.452Z,78.71
2018-02-07T18:44:36.740Z,79.08
2018-02-07T18:47:07.548Z,78.97
2018-02-07T18:49:38.388Z,79.93
2018-02-07T18:52:09.512Z,84.43
2018-02-07T18:54:40.265Z,81.91
2018-02-07T18:57:11.036Z,83.57
2018-02-07T18:59:42.169Z,82.40
2018-02-07T19:02:13.002Z,83.03
2018-02-07T19:04:43.875Z,79.87
2018-02-07T19:07:14.904Z,79.80
2018-02-07T19:09:45.842Z,80.66
2018-02-07T19:12:17.102Z,79.77
2018-02-07T19:14:47.916Z,79.38
2018-02-07T19:17:19.257Z,80.33
2018-02-07T19:19:50.521Z,80.87
2018-02-07T19:22:21.341Z,79.83
2018-02-07T19:24:52.170Z,79.65
2018-02-07T19:27:23.896Z,79.67
2018-02-07T19:29:54.781Z,79.13
2018-02-07T19:32:25.582Z,79.81
2018-02-07T19:34:58.946Z,79.77
2018-02-07T19:37:29.866Z,79.90
2018-02-07T19:40:00.962Z,79.90
2018-02-07T19:42:31.881Z,79.82
2018-02-07T19:45:03.577Z,79.60
2018-02-07T19:47:34.700Z,79.90
2018-02-07T19:50:05.649Z,79.58
2018-02-07T19:52:36.428Z,79.91
2018-02-07T19:55:07.728Z,79.86
2018-02-07T19:57:43.037Z,79.61
2018-02-07T20:00:14.165Z,79.53
2018-02-07T20:02:45.058Z,80.83
2018-02-07T20:05:15.892Z,80.08
2018-02-07T20:07:47.314Z,79.50
2018-02-07T20:10:18.727Z,79.20
2018-02-07T20:12:49.548Z,80.80
2018-02-07T20:15:20.852Z,80.58
2018-02-07T20:17:51.723Z,83.60
2018-02-07T20:20:23.408Z,83.68
2018-02-07T20:22:55.312Z,84.38
2018-02-07T20:25:26.128Z,87.12
2018-02-07T20:27:57.208Z,83.66
2018-02-07T20:30:28.124Z,87.71
2018-02-07T20:32:58.936Z,89.10
2018-02-07T20:35:30.108Z,89.75
2018-02-07T20:38:00.912Z,90.82
2018-02-07T20:40:31.652Z,91.17
2018-02-07T20:43:02.535Z,90.92
2018-02-07T20:45:33.372Z,90.42
2018-02-07T20:48:04.181Z,86.56
2018-02-07T20:50:35.340Z,84.20
2018-02-07T20:53:06.144Z,83.64
2018-02-07T20:55:36.926Z,88.68
2018-02-07T20:58:08.140Z,84.57
2018-02-07T21:00:39.017Z,86.43
2018-02-07T21:03:09.812Z,86.97
2018-02-07T21:05:40.920Z,84.03
2018-02-07T21:08:12.080Z,87.88
2018-02-07T21:10:42.936Z,89.01
2018-02-07T21:13:15.064Z,88.09
2018-02-07T21:15:45.876Z,84.76
2018-02-07T21:18:16.752Z,87.60
2018-02-07T21:20:47.927Z,87.91
2018-02-07T21:23:19.364Z,84.69
2018-02-07T21:25:50.400Z,89.76
2018-02-07T21:28:21.328Z,90.42
2018-02-07T21:30:52.216Z,90.32
2018-02-07T21:33:23.408Z,90.81
2018-02-07T21:35:54.289Z,91.11
2018-02-07T21:38:25.072Z,91.04
2018-02-07T21:40:56.312Z,90.78
2018-02-07T21:43:27.495Z,90.20
2018-02-07T21:45:58.408Z,90.39
2018-02-07T21:48:29.528Z,90.97
2018-02-07T21:51:00.453Z,91.01
2018-02-07T21:53:31.569Z,91.38
2018-02-07T21:56:02.390Z,91.60
2018-02-07T21:58:33.244Z,90.43
2018-02-07T22:01:04.376Z,90.24
2018-02-07T22:03:35.924Z,91.14
2018-02-07T22:06:07.349Z,91.29
2018-02-07T22:08:38.574Z,91.12
2018-02-07T22:11:09.777Z,90.55
2018-02-07T22:13:41.088Z,90.42
2018-02-07T22:16:12.235Z,89.27
2018-02-07T22:18:43.074Z,87.17
2018-02-07T22:21:14.269Z,87.16
2018-02-07T22:23:45.009Z,88.94
2018-02-07T22:26:15.905Z,89.32
2018-02-07T22:28:47.079Z,91.25
2018-02-07T22:31:21.267Z,91.69
2018-02-07T22:33:54.681Z,91.77
2018-02-07T22:36:25.832Z,91.67
2018-02-07T22:38:56.709Z,91.76
2018-02-07T22:41:28.054Z,89.05
2018-02-07T22:43:59.230Z,87.97
2018-02-07T22:46:30.130Z,87.61
2018-02-07T22:49:04.870Z,89.82
2018-02-07T22:51:35.993Z,88.22
2018-02-07T22:54:06.930Z,90.95
2018-02-07T22:56:38.448Z,92.12
2018-02-07T22:59:10.022Z,91.99
2018-02-07T23:01:40.927Z,92.47
2018-02-07T23:04:12.147Z,92.86
2018-02-07T23:06:43.100Z,89.06
2018-02-07T23:09:13.988Z,86.97
2018-02-07T23:11:45.583Z,86.25
2018-02-07T23:14:16.306Z,88.41
2018-02-07T23:16:47.662Z,90.76
2018-02-07T23:19:19.586Z,91.31
2018-02-07T23:21:50.659Z,88.52
2018-02-07T23:24:21.693Z,85.98
2018-02-07T23:26:53.019Z,84.27
2018-02-07T23:29:24.384Z,84.75
2018-02-07T23:31:55.835Z,84.92
2018-02-07T23:34:26.929Z,83.26
2018-02-07T23:36:57.639Z,88.36
2018-02-07T23:39:28.826Z,89.67
2018-02-07T23:41:59.510Z,88.11
2018-02-07T23:44:30.196Z,88.65
2018-02-07T23:47:02.289Z,84.91
2018-02-07T23:49:33.015Z,83.58
2018-02-07T23:52:03.876Z,83.49
2018-02-07T23:54:34.586Z,88.31
2018-02-07T23:57:05.291Z,90.27
2018-02-07T23:59:36.291Z,86.06
